createdAt,value
2023-09-16T00:00:00.425Z,69.75
2023-09-16T00:05:10.745Z,57.89
2023-09-16T00:10:19.520Z,56.30
2023-09-16T00:15:29.164Z,59.93
2023-09-16T00:20:40.095Z,64.10
2023-09-16T00:25:48.880Z,65.95
2023-09-16T00:30:57.062Z,55.04
2023-09-16T00:36:05.727Z,57.71
2023-09-16T00:41:14.418Z,60.35
2023-09-16T00:46:22.498Z,69.03
2023-09-16T00:51:31.538Z,57.67
2023-09-16T00:56:39.973Z,56.41
2023-09-16T01:01:51.431Z,58.86
2023-09-16T01:07:00.466Z,66.32
2023-09-16T01:12:10.222Z,63.17
2023-09-16T01:17:33.784Z,55.28
2023-09-16T01:22:46.342Z,58.87
2023-09-16T01:27:54.899Z,61.44
2023-09-16T01:33:11.226Z,69.62
2023-09-16T01:38:24.299Z,57.18
2023-09-16T01:43:33.648Z,56.24
2023-09-16T01:48:47.255Z,60.30
2023-09-16T01:53:56.234Z,67.51
2023-09-16T01:59:05.059Z,55.81
2023-09-16T02:04:13.158Z,57.13
2023-09-16T02:09:21.160Z,60.00
2023-09-16T02:14:29.255Z,67.58
2023-09-16T02:19:38.106Z,55.90
2023-09-16T02:24:46.541Z,56.86
2023-09-16T02:29:55.237Z,59.91
2023-09-16T02:35:03.492Z,65.12
2023-09-16T02:40:12.873Z,64.91
2023-09-16T02:45:21.482Z,54.45
2023-09-16T02:50:29.572Z,57.74
2023-09-16T02:55:37.673Z,60.88
2023-09-16T03:00:48.058Z,68.58
2023-09-16T03:05:56.368Z,56.14
2023-09-16T03:11:07.613Z,56.04
2023-09-16T03:16:20.981Z,59.64
2023-09-16T03:21:29.581Z,67.78
2023-09-16T03:26:37.705Z,55.75
2023-09-16T03:31:46.086Z,56.51
2023-09-16T03:36:54.815Z,59.71
2023-09-16T03:42:02.983Z,67.95
2023-09-16T03:47:11.947Z,55.68
2023-09-16T03:52:20.168Z,56.95
2023-09-16T03:57:28.280Z,59.87
2023-09-16T04:02:36.477Z,67.83
2023-09-16T04:07:45.026Z,56.05
2023-09-16T04:12:53.547Z,57.11
2023-09-16T04:18:01.685Z,60.44
2023-09-16T04:23:11.222Z,68.49
2023-09-16T04:28:19.905Z,56.13
2023-09-16T04:33:28.357Z,56.43
2023-09-16T04:38:36.407Z,60.47
2023-09-16T04:43:45.090Z,68.55
2023-09-16T04:48:53.458Z,56.39
2023-09-16T04:54:02.717Z,55.56
2023-09-16T04:59:10.794Z,60.07
2023-09-16T05:04:18.880Z,68.71
2023-09-16T05:09:27.083Z,56.74
2023-09-16T05:14:35.423Z,57.34
2023-09-16T05:19:43.603Z,61.14
2023-09-16T05:24:54.298Z,70.13
2023-09-16T05:30:03.908Z,59.71
2023-09-16T05:35:12.492Z,56.31
2023-09-16T05:40:20.779Z,60.58
2023-09-16T05:45:29.276Z,68.90
2023-09-16T05:50:37.741Z,58.21
2023-09-16T05:55:45.787Z,58.62
2023-09-16T06:01:00.405Z,65.95
2023-09-16T06:06:11.060Z,58.87
2023-09-16T06:11:19.518Z,56.59
2023-09-16T06:16:27.861Z,60.21
2023-09-16T06:21:36.160Z,66.30
2023-09-16T06:26:44.300Z,56.98
2023-09-16T06:31:52.436Z,57.32
2023-09-16T06:37:01.237Z,62.87
2023-09-16T06:42:09.588Z,57.65
2023-09-16T06:47:17.789Z,56.80
2023-09-16T06:52:27.934Z,60.74
2023-09-16T06:57:36.092Z,61.02
2023-09-16T07:02:44.264Z,56.96
2023-09-16T07:07:54.091Z,60.57
2023-09-16T07:13:02.151Z,59.72
2023-09-16T07:18:10.571Z,57.08
2023-09-16T07:23:18.714Z,60.09
2023-09-16T07:28:28.215Z,61.98
2023-09-16T07:33:36.364Z,57.55
2023-09-16T07:38:45.508Z,55.57
2023-09-16T07:43:53.644Z,57.80
2023-09-16T07:49:02.098Z,58.94
2023-09-16T07:54:10.816Z,59.20
2023-09-16T07:59:21.623Z,59.09
2023-09-16T08:04:29.920Z,59.26
2023-09-16T08:09:38.206Z,58.38
2023-09-16T08:14:46.263Z,57.33
2023-09-16T08:19:54.665Z,57.04
2023-09-16T08:25:05.191Z,57.49
2023-09-16T08:30:15.112Z,56.84
2023-09-16T08:35:26.437Z,57.08
2023-09-16T08:40:34.705Z,56.87
2023-09-16T08:45:50.737Z,56.67
2023-09-16T08:51:00.029Z,56.05
2023-09-16T08:56:10.142Z,55.82
2023-09-16T09:01:20.434Z,56.32
2023-09-16T09:06:40.109Z,56.24
2023-09-16T09:11:49.974Z,56.02
2023-09-16T09:17:01.854Z,55.37
2023-09-16T09:22:10.978Z,54.88
2023-09-16T09:27:19.119Z,54.67
2023-09-16T09:32:32.629Z,54.63
2023-09-16T09:37:41.275Z,54.08
2023-09-16T09:42:51.822Z,53.53
2023-09-16T09:48:00.670Z,53.51
2023-09-16T09:53:08.998Z,52.23
2023-09-16T09:58:17.124Z,51.99
2023-09-16T10:03:25.926Z,50.57
2023-09-16T10:08:35.072Z,50.17
2023-09-16T10:13:43.548Z,49.38
2023-09-16T10:18:52.103Z,49.22
2023-09-16T10:24:00.561Z,49.06
2023-09-16T10:29:10.911Z,47.74
2023-09-16T10:34:19.179Z,46.89
2023-09-16T10:39:30.744Z,46.48
2023-09-16T10:44:40.130Z,45.74
2023-09-16T10:49:48.961Z,44.98
2023-09-16T10:55:06.165Z,44.60
2023-09-16T11:00:16.333Z,44.53
2023-09-16T11:05:24.508Z,45.08
2023-09-16T11:10:33.282Z,43.87
2023-09-16T11:15:44.670Z,43.34
2023-09-16T11:20:53.296Z,43.35
2023-09-16T11:26:04.578Z,42.91
2023-09-16T11:31:12.803Z,43.06
2023-09-16T11:36:21.723Z,42.76
2023-09-16T11:41:29.816Z,42.36
2023-09-16T11:46:38.889Z,42.85
2023-09-16T11:51:52.466Z,42.03
2023-09-16T11:57:01.920Z,41.96
2023-09-16T12:02:10.998Z,42.62
2023-09-16T12:07:26.412Z,42.08
2023-09-16T12:12:36.112Z,40.95
2023-09-16T12:17:44.413Z,41.40
2023-09-16T12:22:54.135Z,41.26
2023-09-16T12:28:02.443Z,40.66
2023-09-16T12:33:10.507Z,40.79
2023-09-16T12:38:19.586Z,41.37
2023-09-16T12:43:28.326Z,40.94
2023-09-16T12:48:39.504Z,40.32
2023-09-16T12:53:48.617Z,40.37
2023-09-16T12:58:56.801Z,40.74
2023-09-16T13:04:07.358Z,40.73
2023-09-16T13:09:15.544Z,40.64
2023-09-16T13:14:24.140Z,40.96
2023-09-16T13:19:32.338Z,40.57
2023-09-16T13:24:46.501Z,40.68
2023-09-16T13:30:03.537Z,40.45
2023-09-16T13:35:14.185Z,40.53
2023-09-16T13:40:23.629Z,40.83
2023-09-16T13:45:32.077Z,40.77
2023-09-16T13:50:42.862Z,40.69
2023-09-16T13:55:54.392Z,41.00
2023-09-16T14:01:02.622Z,41.28
2023-09-16T14:06:10.990Z,41.10
2023-09-16T14:11:20.897Z,41.27
2023-09-16T14:16:30.800Z,41.55
2023-09-16T14:21:39.399Z,41.43
2023-09-16T14:26:47.546Z,41.82
2023-09-16T14:31:55.798Z,42.05
2023-09-16T14:37:04.110Z,41.91
2023-09-16T14:42:12.235Z,42.45
2023-09-16T14:47:20.312Z,42.29
2023-09-16T14:52:28.480Z,41.61
2023-09-16T14:57:36.623Z,41.82
2023-09-16T15:02:46.601Z,42.04
2023-09-16T15:07:54.895Z,42.25
2023-09-16T15:13:03.007Z,42.53
2023-09-16T15:18:11.513Z,43.28
2023-09-16T15:23:20.319Z,43.50
2023-09-16T15:28:28.578Z,44.18
2023-09-16T15:33:37.244Z,44.53
2023-09-16T15:38:45.460Z,44.99
2023-09-16T15:43:53.556Z,45.43
2023-09-16T15:49:01.827Z,45.85
2023-09-16T15:54:10.264Z,46.09
2023-09-16T15:59:18.301Z,46.28
2023-09-16T16:04:26.686Z,46.64
2023-09-16T16:09:34.898Z,47.11
2023-09-16T16:14:42.969Z,47.74
2023-09-16T16:19:51.760Z,47.82
2023-09-16T16:25:00.593Z,48.22
2023-09-16T16:30:12.274Z,49.10
2023-09-16T16:35:20.955Z,49.30
2023-09-16T16:40:29.149Z,49.77
2023-09-16T16:45:37.248Z,50.68
2023-09-16T16:50:45.859Z,51.08
2023-09-16T16:55:53.968Z,51.72
2023-09-16T17:01:02.304Z,52.27
2023-09-16T17:06:10.521Z,53.57
2023-09-16T17:11:18.702Z,54.53
2023-09-16T17:16:27.387Z,55.71
2023-09-16T17:21:35.555Z,56.98
2023-09-16T17:26:43.683Z,57.71
2023-09-16T17:31:52.084Z,58.38
2023-09-16T17:37:01.407Z,58.17
2023-09-16T17:42:09.977Z,59.56
2023-09-16T17:47:18.053Z,60.17
2023-09-16T17:52:26.333Z,60.77
2023-09-16T17:57:35.455Z,61.27
2023-09-16T18:02:44.350Z,61.45
2023-09-16T18:07:52.565Z,62.94
2023-09-16T18:13:00.658Z,69.54
2023-09-16T18:18:10.146Z,57.72
2023-09-16T18:23:18.852Z,57.77
2023-09-16T18:28:27.436Z,59.79
2023-09-16T18:33:35.897Z,61.37
2023-09-16T18:38:44.396Z,68.61
2023-09-16T18:43:53.556Z,58.99
2023-09-16T18:49:01.806Z,55.50
2023-09-16T18:54:11.101Z,58.15
2023-09-16T18:59:19.311Z,60.31
2023-09-16T19:04:27.540Z,62.70
2023-09-16T19:09:36.924Z,67.25
2023-09-16T19:14:45.036Z,56.79
2023-09-16T19:19:53.570Z,58.21
2023-09-16T19:25:02.105Z,59.86
2023-09-16T19:30:13.352Z,61.69
2023-09-16T19:35:22.495Z,68.93
2023-09-16T19:40:30.554Z,57.96
2023-09-16T19:45:39.427Z,57.04
2023-09-16T19:50:50.999Z,60.42
2023-09-16T19:55:59.097Z,67.37
2023-09-16T20:01:07.279Z,59.70
2023-09-16T20:06:16.924Z,55.66
2023-09-16T20:11:25.124Z,58.77
2023-09-16T20:16:33.690Z,61.81
2023-09-16T20:21:41.910Z,67.78
2023-09-16T20:26:50.357Z,57.20
2023-09-16T20:31:58.503Z,57.54
2023-09-16T20:37:07.546Z,60.95
2023-09-16T20:42:15.910Z,65.44
2023-09-16T20:47:24.251Z,64.23
2023-09-16T20:52:33.801Z,56.24
2023-09-16T20:57:42.022Z,58.60
2023-09-16T21:02:51.034Z,61.47
2023-09-16T21:07:59.296Z,68.43
2023-09-16T21:13:07.780Z,59.01
2023-09-16T21:18:15.916Z,56.76
2023-09-16T21:23:25.486Z,60.07
2023-09-16T21:28:34.659Z,64.46
2023-09-16T21:33:43.815Z,64.36
2023-09-16T21:38:51.884Z,55.69
2023-09-16T21:44:00.584Z,58.52
2023-09-16T21:49:08.752Z,61.60
2023-09-16T21:54:16.900Z,69.21
2023-09-16T21:59:25.199Z,59.24
2023-09-16T22:04:33.638Z,56.68
2023-09-16T22:09:41.827Z,60.12
2023-09-16T22:14:49.898Z,63.33
2023-09-16T22:19:58.174Z,66.25
2023-09-16T22:25:08.480Z,57.00
2023-09-16T22:30:20.713Z,58.08
2023-09-16T22:35:29.038Z,61.40
2023-09-16T22:40:37.202Z,68.00
2023-09-16T22:45:46.586Z,57.53
2023-09-16T22:50:54.808Z,57.87
2023-09-16T22:56:03.040Z,61.14
2023-09-16T23:01:11.332Z,67.63
2023-09-16T23:06:19.459Z,57.49
2023-09-16T23:11:27.463Z,57.42
2023-09-16T23:16:35.673Z,60.67
2023-09-16T23:21:43.870Z,67.86
2023-09-16T23:26:51.950Z,57.79
2023-09-16T23:32:00.134Z,56.95
2023-09-16T23:37:08.473Z,60.43
2023-09-16T23:42:16.574Z,67.89
2023-09-16T23:47:25.380Z,58.25
2023-09-16T23:52:34.405Z,56.91
2023-09-16T23:57:42.501Z,60.19
